Terminal Aerodrome Forecast
Issued by NWS Nashville, TN

Home | Current Version | Previous Version | Text Only | Print | Product List | Glossary On
Versions: 1 2 3 4 5 6 7 8 9 10 11 12 13 14 15 16 17 18 19 20 21
244
FTUS44 KOHX 010404 AAB
TAFCSV
TAF AMD
KCSV 010404Z 0104/0124 16011G19KT P6SM BKN010 BKN017 WS020/18045KT
      TEMPO 0106/0109 5SM -SHRA
     FM010900 20014G22KT 5SM -SHRA OVC012
     FM011200 21012G18KT P6SM BKN040=

USA.gov is the U.S. government's official web portal to all federal, state and local government web resources and services.